Terminal Aerodrome Forecast
Issued by NWS

Home | Current Version | Previous Version | Text Only | Print | Product List | Glossary On
Versions: 1 2 3 4 5 6 7 8 9 10 11 12 13 14
000
FTUS42 KTBW 222323
TAFRSW
TAF
KRSW 222323Z 2300/2324 07007KT P6SM VCSH SCT050 SCT250
     FM230300 06003KT P6SM FEW040 SCT250
     FM231400 07005KT P6SM FEW025 SCT250
     FM231800 07008KT P6SM VCTS SCT045CB SCT100=

USA.gov is the U.S. government's official web portal to all federal, state and local government web resources and services.